createdAt,value
2023-05-12T00:00:52.577Z,20.58
2023-05-12T00:03:19.158Z,19.23
2023-05-12T00:05:45.772Z,18.90
2023-05-12T00:08:12.379Z,19.45
2023-05-12T00:10:39.012Z,21.50
2023-05-12T00:13:05.647Z,19.95
2023-05-12T00:15:32.164Z,20.73
2023-05-12T00:17:58.831Z,18.40
2023-05-12T00:20:25.420Z,18.30
2023-05-12T00:22:51.990Z,19.15
2023-05-12T00:25:18.546Z,18.38
2023-05-12T00:27:45.091Z,18.80
2023-05-12T00:30:11.967Z,19.40
2023-05-12T00:32:38.531Z,19.15
2023-05-12T00:35:05.308Z,18.52
2023-05-12T00:37:31.799Z,18.40
2023-05-12T00:39:58.308Z,18.65
2023-05-12T00:42:24.814Z,18.40
2023-05-12T00:44:51.313Z,17.40
2023-05-12T00:47:18.119Z,17.75
2023-05-12T00:49:44.719Z,16.92
2023-05-12T00:52:11.248Z,17.23
2023-05-12T00:54:39.768Z,17.55
2023-05-12T00:57:06.557Z,17.50
2023-05-12T00:59:33.074Z,16.98
2023-05-12T01:01:59.687Z,17.27
2023-05-12T01:04:26.423Z,16.10
2023-05-12T01:07:01.489Z,15.98
2023-05-12T01:09:28.015Z,16.15
2023-05-12T01:11:54.498Z,14.70
2023-05-12T01:14:21.045Z,15.63
2023-05-12T01:16:53.212Z,16.00
2023-05-12T01:19:41.352Z,14.40
2023-05-12T01:22:09.298Z,15.93
2023-05-12T01:25:06.723Z,13.88
2023-05-12T01:27:33.972Z,12.65
2023-05-12T01:30:04.691Z,13.52
2023-05-12T01:32:31.289Z,13.73
2023-05-12T01:34:57.967Z,13.35
2023-05-12T01:37:24.465Z,13.52
2023-05-12T01:39:51.017Z,13.23
2023-05-12T01:42:17.526Z,13.52
2023-05-12T01:44:44.098Z,13.50
2023-05-12T01:47:10.612Z,12.13
2023-05-12T01:49:40.200Z,11.75
2023-05-12T01:52:06.691Z,12.25
2023-05-12T01:54:33.253Z,11.07
2023-05-12T01:56:59.859Z,10.88
2023-05-12T01:59:26.565Z,10.30
2023-05-12T02:01:53.216Z,9.27
2023-05-12T02:04:19.772Z,10.02
2023-05-12T02:06:46.263Z,9.10
2023-05-12T02:09:12.805Z,8.85
2023-05-12T02:11:39.423Z,7.32
2023-05-12T02:14:05.916Z,7.47
2023-05-12T02:16:32.437Z,7.30
2023-05-12T02:18:59.042Z,6.60
2023-05-12T02:21:25.670Z,7.43
2023-05-12T02:23:52.217Z,6.53
2023-05-12T02:26:18.708Z,7.07
2023-05-12T02:28:45.242Z,7.55
2023-05-12T02:31:11.737Z,7.00
2023-05-12T02:33:38.248Z,7.00
2023-05-12T02:36:05.148Z,7.25
2023-05-12T02:38:31.674Z,7.03
2023-05-12T02:40:58.345Z,6.18
2023-05-12T02:43:24.844Z,7.53
2023-05-12T02:45:51.329Z,7.22
2023-05-12T02:48:17.833Z,7.45
2023-05-12T02:50:44.390Z,7.43
2023-05-12T02:53:10.961Z,6.82
2023-05-12T02:55:37.503Z,6.85
2023-05-12T02:58:04.052Z,6.65
2023-05-12T03:00:30.610Z,6.93
2023-05-12T03:02:57.233Z,6.45
2023-05-12T03:05:23.862Z,5.80
2023-05-12T03:07:50.540Z,6.20
2023-05-12T03:10:18.506Z,5.50
2023-05-12T03:12:45.441Z,5.13
2023-05-12T03:15:12.818Z,5.85
2023-05-12T03:17:39.564Z,6.18
2023-05-12T03:20:07.052Z,6.20
2023-05-12T03:22:33.740Z,6.68
2023-05-12T03:25:00.295Z,6.07
2023-05-12T03:27:26.969Z,5.90
2023-05-12T03:29:53.460Z,7.05
2023-05-12T03:32:19.963Z,5.80
2023-05-12T03:34:46.520Z,6.13
2023-05-12T03:37:12.983Z,5.93
2023-05-12T03:39:39.530Z,5.57
2023-05-12T03:42:06.298Z,5.03
2023-05-12T03:44:32.869Z,4.70
2023-05-12T03:46:59.394Z,5.85
2023-05-12T03:49:25.975Z,5.30
2023-05-12T03:51:52.465Z,4.78
2023-05-12T03:54:19.044Z,4.82
2023-05-12T03:56:45.550Z,5.28
2023-05-12T03:59:12.112Z,5.25
2023-05-12T04:01:38.981Z,5.50
2023-05-12T04:04:05.574Z,5.88
2023-05-12T04:06:32.203Z,6.22
2023-05-12T04:08:59.072Z,5.63
2023-05-12T04:11:25.657Z,6.60
2023-05-12T04:13:52.431Z,6.82
2023-05-12T04:16:18.979Z,7.30
2023-05-12T04:18:45.644Z,6.60
2023-05-12T04:21:12.203Z,6.75
2023-05-12T04:23:38.686Z,5.78
2023-05-12T04:26:05.285Z,7.30
2023-05-12T04:28:31.903Z,5.57
2023-05-12T04:31:02.732Z,7.10
2023-05-12T04:33:29.246Z,6.97
2023-05-12T04:35:56.980Z,6.95
2023-05-12T04:38:23.515Z,6.82
2023-05-12T04:40:50.009Z,6.88
2023-05-12T04:45:45.918Z,6.03
2023-05-12T04:48:12.419Z,6.68
2023-05-12T04:50:38.920Z,6.22
2023-05-12T04:53:05.444Z,6.80
2023-05-12T04:55:31.985Z,6.32
2023-05-12T04:57:58.492Z,6.68
2023-05-12T05:00:25.042Z,6.15
2023-05-12T05:02:51.654Z,6.40
2023-05-12T05:05:18.421Z,5.55
2023-05-12T05:07:45.009Z,6.72
2023-05-12T05:10:11.506Z,6.05
2023-05-12T05:12:38.013Z,5.70
2023-05-12T05:15:05.026Z,6.05
2023-05-12T05:17:31.562Z,5.72
2023-05-12T05:19:59.358Z,6.45
2023-05-12T05:22:26.460Z,6.40
2023-05-12T05:24:53.033Z,6.30
2023-05-12T05:27:19.559Z,5.78
2023-05-12T05:29:46.122Z,6.93
2023-05-12T05:32:12.606Z,7.93
2023-05-12T05:34:39.255Z,6.80
2023-05-12T05:37:06.017Z,7.05
2023-05-12T05:39:32.563Z,6.13
2023-05-12T05:41:59.077Z,5.60
2023-05-12T05:44:25.683Z,5.75
2023-05-12T05:46:52.307Z,5.38
2023-05-12T05:49:19.014Z,5.50
2023-05-12T05:51:45.499Z,5.40
2023-05-12T05:54:12.063Z,5.85
2023-05-12T05:56:38.689Z,5.10
2023-05-12T05:59:05.198Z,4.72
2023-05-12T06:01:32.422Z,4.72
2023-05-12T06:03:59.288Z,4.38
2023-05-12T06:06:25.959Z,4.22
2023-05-12T06:08:52.456Z,3.70
2023-05-12T06:11:18.916Z,3.65
2023-05-12T06:13:45.432Z,4.10
2023-05-12T06:16:11.966Z,4.15
2023-05-12T06:18:38.589Z,3.22
2023-05-12T06:21:05.865Z,3.28
2023-05-12T06:23:32.653Z,3.38
2023-05-12T06:25:59.288Z,2.85
2023-05-12T06:28:25.802Z,2.47
2023-05-12T06:30:52.358Z,2.75
2023-05-12T06:33:18.889Z,2.80
2023-05-12T06:35:45.406Z,2.97
2023-05-12T06:38:12.087Z,2.78
2023-05-12T06:40:38.574Z,2.97
2023-05-12T06:43:05.064Z,2.85
2023-05-12T06:45:31.583Z,2.63
2023-05-12T06:47:58.121Z,2.92
2023-05-12T06:50:24.697Z,2.92
2023-05-12T06:52:51.276Z,3.38
2023-05-12T06:57:44.332Z,2.95
2023-05-12T07:00:11.436Z,2.95
2023-05-12T07:02:37.987Z,3.60
2023-05-12T07:05:04.811Z,3.17
2023-05-12T07:07:31.312Z,3.28
2023-05-12T07:09:57.836Z,3.63
2023-05-12T07:12:24.374Z,3.25
2023-05-12T07:14:50.906Z,3.25
2023-05-12T07:17:17.384Z,3.20
2023-05-12T07:19:45.987Z,3.25
2023-05-12T07:22:12.591Z,3.22
2023-05-12T07:24:39.131Z,3.20
2023-05-12T07:27:05.789Z,3.88
2023-05-12T07:29:32.363Z,3.10
2023-05-12T07:31:58.919Z,3.15
2023-05-12T07:34:25.632Z,3.53
2023-05-12T07:36:52.181Z,3.50
2023-05-12T07:39:18.742Z,3.50
2023-05-12T07:41:45.358Z,3.60
2023-05-12T07:44:11.903Z,3.80
2023-05-12T07:46:38.492Z,3.63
2023-05-12T07:49:05.035Z,3.05
2023-05-12T07:51:31.516Z,3.28
2023-05-12T07:53:58.161Z,3.10
2023-05-12T07:56:24.699Z,2.75
2023-05-12T07:58:51.286Z,2.72
2023-05-12T08:01:17.961Z,2.92
2023-05-12T08:03:44.610Z,3.00
2023-05-12T08:06:11.188Z,2.67
2023-05-12T08:08:37.710Z,2.92
2023-05-12T08:11:04.530Z,2.90
2023-05-12T08:13:31.165Z,2.65
2023-05-12T08:15:57.708Z,2.63
2023-05-12T08:18:25.377Z,2.50
2023-05-12T08:20:52.038Z,2.05
2023-05-12T08:23:18.562Z,1.73
2023-05-12T08:25:45.238Z,1.50
2023-05-12T08:28:12.276Z,1.63
2023-05-12T08:30:38.829Z,1.83
2023-05-12T08:33:05.423Z,1.70
2023-05-12T08:35:32.166Z,1.92
2023-05-12T08:37:58.843Z,1.90
2023-05-12T08:40:27.155Z,1.80
2023-05-12T08:43:05.912Z,1.95
2023-05-12T08:45:32.670Z,1.77
2023-05-12T08:48:00.410Z,2.20
2023-05-12T08:50:28.098Z,1.63
2023-05-12T08:52:55.887Z,1.50
2023-05-12T08:55:26.014Z,1.50
2023-05-12T08:57:56.237Z,1.42
2023-05-12T09:00:24.166Z,1.63
2023-05-12T09:02:54.434Z,1.50
2023-05-12T09:05:22.848Z,2.10
2023-05-12T09:07:50.126Z,1.70
2023-05-12T09:10:32.993Z,1.90
2023-05-12T09:13:16.685Z,1.70
2023-05-12T09:15:45.404Z,1.90
2023-05-12T09:18:11.882Z,2.00
2023-05-12T09:20:38.544Z,1.90
2023-05-12T09:23:21.338Z,2.00
2023-05-12T09:25:58.141Z,2.47
2023-05-12T09:28:24.691Z,3.03
2023-05-12T09:30:51.224Z,2.75
2023-05-12T09:33:17.779Z,2.55
2023-05-12T09:35:45.588Z,2.50
2023-05-12T09:38:13.936Z,2.60
2023-05-12T09:40:40.580Z,2.33
2023-05-12T09:43:08.024Z,2.17
2023-05-12T09:45:38.458Z,2.30
2023-05-12T09:48:12.397Z,2.50
2023-05-12T09:50:50.408Z,1.88
2023-05-12T09:53:18.126Z,2.58
2023-05-12T09:55:45.491Z,2.05
2023-05-12T09:58:13.567Z,2.45
2023-05-12T10:01:06.029Z,2.38
2023-05-12T10:03:29.924Z,2.10
2023-05-12T10:06:00.042Z,2.15
2023-05-12T10:08:32.247Z,2.22
2023-05-12T10:11:01.752Z,2.13
2023-05-12T10:15:58.604Z,2.30
2023-05-12T10:18:25.726Z,2.38
2023-05-12T10:20:53.348Z,2.47
2023-05-12T10:23:20.433Z,2.45
2023-05-12T10:25:47.820Z,2.40
2023-05-12T10:28:14.338Z,1.80
2023-05-12T10:30:42.417Z,1.80
2023-05-12T10:33:09.364Z,1.80
2023-05-12T10:35:36.960Z,1.95
2023-05-12T10:38:11.163Z,1.55
2023-05-12T10:40:49.223Z,2.10
2023-05-12T10:43:26.139Z,1.52
2023-05-12T10:46:21.315Z,1.55
2023-05-12T10:49:06.201Z,1.48
2023-05-12T10:51:59.124Z,1.45
2023-05-12T10:56:53.370Z,1.45
2023-05-12T10:59:25.244Z,1.38
2023-05-12T11:02:27.638Z,1.65
2023-05-12T11:05:02.384Z,1.50
2023-05-12T11:07:32.543Z,1.45
2023-05-12T11:10:01.921Z,1.65
2023-05-12T11:12:34.554Z,1.60
2023-05-12T11:15:02.149Z,1.55
2023-05-12T11:17:29.078Z,1.77
2023-05-12T11:19:55.984Z,2.15
2023-05-12T11:22:23.747Z,1.80
2023-05-12T11:24:51.281Z,1.50
2023-05-12T11:27:19.764Z,1.95
2023-05-12T11:29:59.293Z,1.83
2023-05-12T11:32:26.007Z,1.80
2023-05-12T11:34:52.674Z,1.88
2023-05-12T11:37:19.214Z,1.67
2023-05-12T11:39:45.743Z,2.00
2023-05-12T11:42:13.928Z,1.98
2023-05-12T11:44:50.190Z,2.28
2023-05-12T11:47:20.192Z,1.95
2023-05-12T11:49:47.760Z,1.75
2023-05-12T11:52:14.434Z,2.30
2023-05-12T11:54:57.082Z,2.10
2023-05-12T11:57:31.589Z,2.10
2023-05-12T12:00:00.516Z,2.30
2023-05-12T12:02:27.625Z,2.20
2023-05-12T12:04:54.405Z,2.42
2023-05-12T12:07:35.489Z,2.38
2023-05-12T12:10:16.031Z,2.10
2023-05-12T12:12:43.340Z,2.15
2023-05-12T12:15:10.838Z,2.03
2023-05-12T12:17:37.747Z,2.30
2023-05-12T12:20:04.522Z,2.15
2023-05-12T12:22:31.110Z,2.28
2023-05-12T12:24:57.676Z,2.13
2023-05-12T12:27:24.151Z,2.30
2023-05-12T12:29:50.657Z,2.45
2023-05-12T12:32:17.328Z,2.22
2023-05-12T12:34:43.807Z,2.20
2023-05-12T12:37:10.598Z,2.28
2023-05-12T12:39:37.083Z,2.20
2023-05-12T12:42:04.536Z,2.58
2023-05-12T12:44:31.086Z,2.95
2023-05-12T12:46:57.610Z,2.40
2023-05-12T12:49:24.142Z,2.35
2023-05-12T12:51:50.743Z,2.40
2023-05-12T12:54:17.276Z,2.70
2023-05-12T12:56:44.016Z,2.60
2023-05-12T12:59:10.592Z,2.58
2023-05-12T13:01:37.170Z,2.70
2023-05-12T13:04:03.769Z,2.50
2023-05-12T13:06:30.246Z,2.40
2023-05-12T13:08:56.744Z,2.50
2023-05-12T13:11:23.299Z,2.20
2023-05-12T13:13:49.776Z,2.25
2023-05-12T13:16:16.350Z,2.50
2023-05-12T13:18:42.847Z,2.55
2023-05-12T13:21:09.398Z,2.20
2023-05-12T13:23:35.934Z,2.40
2023-05-12T13:26:02.410Z,2.60
2023-05-12T13:28:28.971Z,2.40
2023-05-12T13:30:55.581Z,2.35
2023-05-12T13:33:22.175Z,2.35
2023-05-12T13:35:48.643Z,2.45
2023-05-12T13:38:15.119Z,2.72
2023-05-12T13:40:41.647Z,2.25
2023-05-12T13:43:08.172Z,2.70
2023-05-12T13:45:34.674Z,2.70
2023-05-12T13:48:01.214Z,2.53
2023-05-12T13:50:27.887Z,2.40
2023-05-12T13:52:54.420Z,2.28
2023-05-12T13:55:21.866Z,2.70
2023-05-12T13:57:48.953Z,2.40
2023-05-12T14:00:15.770Z,2.60
2023-05-12T14:02:42.477Z,2.83
2023-05-12T14:05:09.246Z,2.72
2023-05-12T14:07:35.795Z,2.83
2023-05-12T14:10:02.282Z,2.90
2023-05-12T14:12:28.807Z,3.13
2023-05-12T14:15:01.877Z,2.85
2023-05-12T14:17:34.719Z,3.33
2023-05-12T14:20:01.239Z,2.85
2023-05-12T14:22:27.821Z,3.22
2023-05-12T14:24:54.305Z,3.20
2023-05-12T14:27:20.826Z,2.88
2023-05-12T14:29:47.334Z,2.78
2023-05-12T14:32:13.812Z,3.05
2023-05-12T14:34:40.327Z,3.40
2023-05-12T14:37:06.858Z,3.85
2023-05-12T14:39:33.367Z,3.15
2023-05-12T14:41:59.863Z,3.75
2023-05-12T14:44:26.358Z,8.93
2023-05-12T14:46:52.828Z,3.72
2023-05-12T14:49:19.352Z,3.63
2023-05-12T14:51:46.126Z,3.10
2023-05-12T14:54:21.912Z,3.45
2023-05-12T14:56:51.138Z,3.25
2023-05-12T14:59:17.638Z,3.35
2023-05-12T15:01:44.218Z,3.10
2023-05-12T15:04:10.820Z,2.92
2023-05-12T15:06:37.290Z,3.25
2023-05-12T15:09:04.115Z,3.17
2023-05-12T15:11:30.647Z,3.28
2023-05-12T15:13:57.194Z,3.47
2023-05-12T15:16:23.699Z,3.38
2023-05-12T15:18:50.274Z,3.30
2023-05-12T15:21:16.892Z,3.72
2023-05-12T15:23:43.404Z,3.28
2023-05-12T15:26:27.122Z,3.33
2023-05-12T15:28:56.473Z,2.80
2023-05-12T15:31:23.058Z,3.55
2023-05-12T15:33:49.551Z,3.20
2023-05-12T15:36:16.096Z,3.50
2023-05-12T15:38:42.595Z,3.10
2023-05-12T15:41:09.096Z,2.92
2023-05-12T15:43:37.204Z,3.15
2023-05-12T15:46:03.913Z,3.20
2023-05-12T15:48:30.462Z,3.28
2023-05-12T15:50:56.939Z,3.60
2023-05-12T15:53:23.433Z,3.40
2023-05-12T15:56:04.927Z,3.55
2023-05-12T15:58:31.958Z,3.40
2023-05-12T16:00:59.027Z,3.83
2023-05-12T16:03:25.893Z,3.10
2023-05-12T16:05:52.536Z,3.90
2023-05-12T16:08:19.124Z,3.42
2023-05-12T16:10:45.710Z,2.90
2023-05-12T16:13:12.263Z,3.42
2023-05-12T16:15:38.802Z,3.35
2023-05-12T16:18:07.586Z,3.22
2023-05-12T16:20:35.833Z,3.42
2023-05-12T16:23:02.345Z,3.50
2023-05-12T16:25:28.872Z,3.58
2023-05-12T16:27:55.376Z,3.63
2023-05-12T16:30:21.904Z,4.00
2023-05-12T16:32:48.469Z,3.53
2023-05-12T16:35:15.039Z,3.80
2023-05-12T16:37:41.585Z,3.78
2023-05-12T16:40:08.660Z,3.70
2023-05-12T16:42:35.193Z,3.63
2023-05-12T16:45:01.699Z,3.40
2023-05-12T16:47:28.280Z,3.70
2023-05-12T16:49:54.776Z,3.22
2023-05-12T16:52:21.276Z,3.53
2023-05-12T16:54:47.804Z,3.35
2023-05-12T16:57:14.310Z,3.40
2023-05-12T16:59:40.990Z,3.22
2023-05-12T17:02:08.006Z,2.97
2023-05-12T17:04:34.571Z,2.50
2023-05-12T17:07:01.074Z,2.85
2023-05-12T17:09:27.573Z,3.00
2023-05-12T17:11:54.043Z,2.80
2023-05-12T17:14:20.539Z,2.70
2023-05-12T17:16:47.011Z,3.22
2023-05-12T17:19:14.272Z,2.65
2023-05-12T17:21:41.386Z,2.85
2023-05-12T17:24:08.405Z,2.75
2023-05-12T17:26:35.613Z,2.70
2023-05-12T17:29:02.274Z,2.85
2023-05-12T17:31:28.968Z,2.63
2023-05-12T17:33:55.696Z,3.00
2023-05-12T17:36:22.230Z,2.75
2023-05-12T17:38:50.612Z,2.70
2023-05-12T17:41:17.790Z,2.97
2023-05-12T17:43:44.392Z,3.22
2023-05-12T17:46:10.999Z,2.90
2023-05-12T17:48:37.552Z,2.85
2023-05-12T17:51:04.661Z,3.08
2023-05-12T17:53:32.411Z,3.03
2023-05-12T17:55:59.675Z,3.00
2023-05-12T17:58:26.639Z,3.38
2023-05-12T18:00:53.710Z,3.45
2023-05-12T18:03:20.495Z,3.60
2023-05-12T18:05:47.154Z,4.07
2023-05-12T18:08:13.667Z,3.50
2023-05-12T18:10:40.260Z,3.85
2023-05-12T18:13:06.818Z,5.43
2023-05-12T18:15:33.335Z,4.00
2023-05-12T18:17:59.848Z,3.72
2023-05-12T18:20:26.385Z,3.40
2023-05-12T18:22:52.963Z,3.28
2023-05-12T18:25:19.936Z,3.20
2023-05-12T18:27:46.694Z,2.95
2023-05-12T18:30:13.702Z,3.10
2023-05-12T18:32:40.388Z,3.42
2023-05-12T18:35:09.196Z,3.53
2023-05-12T18:37:35.714Z,3.28
2023-05-12T18:40:02.348Z,3.72
2023-05-12T18:42:28.836Z,3.22
2023-05-12T18:44:55.397Z,3.00
2023-05-12T18:47:21.918Z,3.00
2023-05-12T18:49:48.546Z,3.13
2023-05-12T18:52:15.088Z,3.25
2023-05-12T18:54:41.694Z,3.35
2023-05-12T18:57:08.238Z,3.20
2023-05-12T18:59:34.802Z,3.65
2023-05-12T19:02:01.517Z,3.00
2023-05-12T19:04:28.476Z,3.40
2023-05-12T19:06:55.194Z,3.50
2023-05-12T19:09:21.692Z,3.50
2023-05-12T19:11:48.205Z,3.70
2023-05-12T19:14:14.743Z,3.70
2023-05-12T19:16:41.414Z,3.35
2023-05-12T19:19:08.097Z,3.55
2023-05-12T19:21:34.742Z,3.42
2023-05-12T19:24:01.519Z,3.95
2023-05-12T19:26:28.047Z,3.40
2023-05-12T19:28:54.525Z,3.58
2023-05-12T19:31:21.485Z,3.88
2023-05-12T19:33:48.029Z,3.33
2023-05-12T19:36:14.603Z,3.50
2023-05-12T19:38:41.157Z,3.92
2023-05-12T19:41:07.676Z,3.40
2023-05-12T19:43:34.199Z,3.55
2023-05-12T19:46:00.813Z,4.13
2023-05-12T19:48:27.449Z,3.45
2023-05-12T19:50:54.526Z,3.85
2023-05-12T19:53:21.235Z,3.53
2023-05-12T19:55:47.731Z,3.72
2023-05-12T19:58:14.484Z,4.10
2023-05-12T20:00:41.149Z,3.70
2023-05-12T20:03:07.754Z,3.70
2023-05-12T20:05:37.717Z,4.07
2023-05-12T20:08:04.580Z,4.20
2023-05-12T20:10:31.568Z,3.83
2023-05-12T20:12:58.114Z,4.18
2023-05-12T20:15:24.709Z,4.65
2023-05-12T20:17:51.254Z,4.07
2023-05-12T20:20:18.057Z,4.28
2023-05-12T20:22:44.718Z,3.90
2023-05-12T20:25:11.252Z,4.40
2023-05-12T20:27:37.830Z,4.57
2023-05-12T20:30:04.954Z,4.45
2023-05-12T20:32:31.631Z,4.85
2023-05-12T20:34:58.199Z,4.82
2023-05-12T20:37:25.391Z,5.00
2023-05-12T20:39:54.960Z,4.97
2023-05-12T20:42:21.875Z,4.93
2023-05-12T20:44:48.426Z,5.30
2023-05-12T20:47:15.106Z,5.00
2023-05-12T20:49:41.757Z,5.13
2023-05-12T20:52:09.665Z,4.75
2023-05-12T20:54:36.516Z,5.53
2023-05-12T20:57:03.171Z,5.70
2023-05-12T20:59:39.858Z,5.40
2023-05-12T21:02:07.382Z,5.20
2023-05-12T21:04:33.916Z,5.50
2023-05-12T21:07:00.555Z,5.68
2023-05-12T21:09:27.469Z,5.57
2023-05-12T21:11:54.194Z,5.53
2023-05-12T21:14:20.714Z,5.88
2023-05-12T21:16:47.285Z,5.00
2023-05-12T21:19:13.929Z,6.22
2023-05-12T21:21:40.565Z,5.60
2023-05-12T21:24:07.275Z,5.65
2023-05-12T21:26:33.811Z,5.95
2023-05-12T21:29:00.326Z,5.68
2023-05-12T21:31:26.887Z,6.38
2023-05-12T21:33:53.501Z,5.68
2023-05-12T21:36:20.061Z,6.40
2023-05-12T21:38:48.977Z,5.95
2023-05-12T21:41:15.526Z,5.72
2023-05-12T21:43:42.015Z,6.20
2023-05-12T21:46:08.782Z,5.85
2023-05-12T21:48:35.335Z,5.78
2023-05-12T21:51:02.839Z,5.95
2023-05-12T21:53:29.682Z,6.00
2023-05-12T21:55:56.450Z,6.57
2023-05-12T21:58:23.060Z,5.95
2023-05-12T22:00:52.423Z,6.97
2023-05-12T22:03:19.371Z,6.60
2023-05-12T22:05:46.581Z,6.90
2023-05-12T22:08:13.264Z,7.05
2023-05-12T22:10:39.944Z,6.88
2023-05-12T22:13:06.555Z,6.90
2023-05-12T22:15:33.157Z,6.43
2023-05-12T22:17:59.776Z,8.00
2023-05-12T22:20:26.514Z,7.85
2023-05-12T22:22:53.087Z,8.60
2023-05-12T22:25:19.628Z,7.72
2023-05-12T22:27:46.163Z,7.95
2023-05-12T22:30:13.068Z,8.10
2023-05-12T22:32:39.645Z,8.25
2023-05-12T22:35:06.748Z,8.73
2023-05-12T22:37:33.411Z,8.57
2023-05-12T22:39:59.902Z,9.48
2023-05-12T22:42:26.472Z,9.98
2023-05-12T22:44:52.993Z,9.50
2023-05-12T22:47:19.605Z,10.38
2023-05-12T22:49:46.234Z,10.15
2023-05-12T22:52:12.724Z,9.68
2023-05-12T22:54:39.261Z,10.75
2023-05-12T22:57:05.933Z,10.20
2023-05-12T22:59:32.491Z,9.23
2023-05-12T23:01:58.988Z,9.32
2023-05-12T23:04:25.575Z,10.10
2023-05-12T23:06:52.122Z,10.57
2023-05-12T23:09:18.672Z,9.93
2023-05-12T23:11:45.145Z,11.35
2023-05-12T23:14:11.654Z,10.50
2023-05-12T23:16:38.257Z,12.07
2023-05-12T23:19:04.950Z,9.88
2023-05-12T23:21:31.516Z,10.90
2023-05-12T23:23:58.062Z,11.45
2023-05-12T23:26:24.836Z,10.55
2023-05-12T23:28:51.343Z,10.75
2023-05-12T23:31:17.840Z,10.93
2023-05-12T23:33:44.527Z,8.95
2023-05-12T23:36:11.105Z,9.48
2023-05-12T23:38:37.585Z,11.38
2023-05-12T23:41:04.122Z,11.25
2023-05-12T23:43:30.613Z,11.05
2023-05-12T23:45:57.482Z,11.95
2023-05-12T23:48:24.103Z,12.38
2023-05-12T23:50:50.627Z,11.73
2023-05-12T23:53:17.135Z,10.98
2023-05-12T23:55:45.142Z,11.52
2023-05-12T23:58:11.670Z,12.02
